Time;durP1;ratioP1;P1;durP2;ratioP2;P2;SDS_P1;SDS_P2;PMS_P1;PMS_P2;Temp;Humidity;BMP_temperature;BMP_pressure;BME280_temperature;BME280_humidity;BME280_pressure;Samples;Min_cycle;Max_cycle;Signal;HPM_P1;HPM_P2
2021/12/29 00:00:38;;;;;;;14.60;6.80;;;;;;;3.45;100.00;96900.34;4927037;29;20094;-87
2021/12/29 00:03:04;;;;;;;17.02;7.90;;;;;;;3.58;100.00;96934.13;4926730;29;20035;-86
2021/12/29 00:05:30;;;;;;;22.20;9.38;;;;;;;3.41;100.00;96915.50;4926503;29;20038;-88
2021/12/29 00:07:56;;;;;;;21.40;10.70;;;;;;;3.38;100.00;96906.84;4926124;29;20054;-86
2021/12/29 00:10:22;;;;;;;22.27;11.18;;;;;;;3.48;100.00;96924.00;4922119;29;20062;-86
2021/12/29 00:12:51;;;;;;;17.00;9.25;;;;;;;3.39;100.00;96922.63;4923007;29;20557;-86
2021/12/29 00:15:18;;;;;;;22.23;9.30;;;;;;;3.35;100.00;96905.22;4924037;29;20043;-86
2021/12/29 00:17:45;;;;;;;16.13;8.43;;;;;;;3.34;100.00;96921.97;4907297;29;20042;-86
2021/12/29 00:20:14;;;;;;;24.25;9.27;;;;;;;3.16;100.00;96904.28;4923454;29;20115;-87
2021/12/29 00:22:39;;;;;;;20.85;9.40;;;;;;;3.25;100.00;96915.31;4923974;29;20036;-86
2021/12/29 00:25:06;;;;;;;20.88;9.10;;;;;;;3.38;100.00;96920.06;4922731;29;20051;-87
2021/12/29 00:27:32;;;;;;;23.40;10.02;;;;;;;3.40;100.00;96919.06;4922411;29;20063;-86
2021/12/29 00:29:57;;;;;;;23.75;10.85;;;;;;;3.23;100.00;96890.72;4922901;29;20492;-86
2021/12/29 00:32:23;;;;;;;34.65;11.98;;;;;;;3.34;100.00;96903.47;4906371;29;20036;-87
2021/12/29 00:34:49;;;;;;;50.58;12.50;;;;;;;3.42;100.00;96905.78;4922903;29;20138;-86
2021/12/29 00:37:14;;;;;;;25.48;11.15;;;;;;;3.46;100.00;96892.38;4922665;29;20042;-86
2021/12/29 00:39:40;;;;;;;48.67;10.35;;;;;;;3.58;100.00;96891.81;4922961;29;20045;-87
2021/12/29 00:42:06;;;;;;;33.58;9.95;;;;;;;3.64;100.00;96902.13;4908666;29;20040;-86
2021/12/29 00:44:33;;;;;;;19.95;9.23;;;;;;;3.53;100.00;96888.53;4908970;29;20518;-87
2021/12/29 00:46:59;;;;;;;21.95;9.98;;;;;;;3.38;100.00;96877.78;4924525;29;20042;-87
2021/12/29 00:49:32;;;;;;;37.78;9.73;;;;;;;3.20;100.00;96868.84;4923931;29;20493;-86
2021/12/29 00:52:05;;;;;;;38.20;9.98;;;;;;;3.33;100.00;96864.75;4924485;29;20040;-87
2021/12/29 00:54:31;;;;;;;35.42;9.35;;;;;;;3.60;100.00;96899.69;4907508;29;20043;-87
2021/12/29 00:56:56;;;;;;;38.55;10.32;;;;;;;3.49;100.00;96886.06;4905995;29;20043;-86
2021/12/29 00:59:23;;;;;;;34.97;11.73;;;;;;;3.48;100.00;96882.56;4922665;29;20040;-86
2021/12/29 01:01:50;;;;;;;29.90;11.38;;;;;;;3.59;100.00;96898.84;4907440;29;20036;-88
2021/12/29 01:04:16;;;;;;;33.25;10.80;;;;;;;3.50;100.00;96893.97;4921342;29;20078;-86
2021/12/29 01:06:42;;;;;;;35.10;10.88;;;;;;;3.37;100.00;96887.50;4922073;29;20110;-87
2021/12/29 01:09:07;;;;;;;30.85;10.75;;;;;;;3.35;100.00;96876.13;4922296;29;20518;-88
2021/12/29 01:11:33;;;;;;;37.10;10.15;;;;;;;3.40;100.00;96887.34;4922087;29;20111;-87
2021/12/29 01:13:58;;;;;;;41.25;11.25;;;;;;;3.43;100.00;96889.00;4906612;29;20071;-87
2021/12/29 01:19:22;;;;;;;53.47;9.70;;;;;;;3.57;100.00;96903.31;4923921;29;20066;-86
2021/12/29 01:21:52;;;;;;;33.97;8.30;;;;;;;3.38;100.00;96891.84;4906621;29;20495;-87
2021/12/29 01:24:21;;;;;;;29.33;9.38;;;;;;;3.35;100.00;96897.28;4924145;29;20098;-87
2021/12/29 01:26:47;;;;;;;35.45;10.07;;;;;;;3.24;100.00;96904.81;4925970;29;20028;-86
2021/12/29 01:29:13;;;;;;;24.55;10.05;;;;;;;3.35;100.00;96896.41;4940477;29;20046;-86
2021/12/29 01:31:40;;;;;;;28.92;10.40;;;;;;;3.25;100.00;96857.19;4924548;29;20027;-87
2021/12/29 01:34:05;;;;;;;47.00;9.77;;;;;;;3.50;100.00;96891.31;4924758;29;20043;-86
2021/12/29 01:36:36;;;;;;;25.92;9.63;;;;;;;3.55;100.00;96891.97;4925050;29;20057;-86
2021/12/29 01:39:04;;;;;;;36.38;10.45;;;;;;;3.33;100.00;96877.97;4924684;29;20081;-86
2021/12/29 01:41:30;;;;;;;25.80;10.63;;;;;;;3.36;100.00;96864.63;4924789;29;20405;-86
2021/12/29 01:43:56;;;;;;;34.50;9.45;;;;;;;3.31;100.00;96865.75;4940290;29;20134;-86
2021/12/29 01:46:21;;;;;;;45.70;11.13;;;;;;;3.24;100.00;96862.53;4924202;29;20050;-87
2021/12/29 01:48:47;;;;;;;28.88;10.88;;;;;;;3.34;100.00;96881.47;4941527;29;20067;-87
2021/12/29 01:51:16;;;;;;;42.10;11.25;;;;;;;3.36;100.00;96880.47;4941398;29;20042;-87
2021/12/29 01:53:48;;;;;;;31.75;9.82;;;;;;;3.16;100.00;96868.16;4941346;29;20039;-86
2021/12/29 01:56:14;;;;;;;23.92;10.05;;;;;;;3.00;100.00;96859.19;4925989;29;20407;-87
2021/12/29 01:58:40;;;;;;;23.75;9.85;;;;;;;3.20;100.00;96887.34;4924885;29;20047;-88
2021/12/29 02:01:06;;;;;;;26.63;9.23;;;;;;;3.11;100.00;96858.69;4940596;29;20041;-86
2021/12/29 02:03:32;;;;;;;24.23;8.57;;;;;;;3.09;100.00;96855.28;4913220;29;20460;-86
2021/12/29 02:05:57;;;;;;;29.00;8.85;;;;;;;3.11;100.00;96846.34;4921688;29;20047;-88
2021/12/29 02:08:24;;;;;;;29.77;9.18;;;;;;;3.11;100.00;96833.13;4905537;29;20412;-87
2021/12/29 02:10:51;;;;;;;22.13;9.45;;;;;;;3.24;100.00;96852.81;4920538;29;20483;-86
2021/12/29 02:13:17;;;;;;;20.10;8.68;;;;;;;3.31;100.00;96856.06;4921989;29;20040;-88
2021/12/29 02:15:44;;;;;;;28.92;8.73;;;;;;;3.30;100.00;96833.19;4905653;29;20547;-88
2021/12/29 02:18:14;;;;;;;23.10;8.38;;;;;;;3.46;100.00;96846.56;4905265;29;20140;-87
2021/12/29 02:20:53;;;;;;;17.67;7.65;;;;;;;3.42;100.00;96842.34;4922038;29;20044;-88
2021/12/29 02:23:26;;;;;;;25.25;7.55;;;;;;;3.40;100.00;96834.50;4921568;29;20515;-86
2021/12/29 02:25:56;;;;;;;16.10;7.53;;;;;;;3.33;100.00;96827.75;4924130;29;20125;-87
2021/12/29 02:28:26;;;;;;;16.40;7.22;;;;;;;3.37;100.00;96828.47;4922367;29;20040;-87
2021/12/29 02:30:52;;;;;;;15.40;7.13;;;;;;;3.36;100.00;96813.53;4905723;29;20508;-86
2021/12/29 02:33:18;;;;;;;24.35;8.07;;;;;;;3.27;100.00;96791.03;4905420;29;20039;-86
2021/12/29 02:35:44;;;;;;;17.13;7.00;;;;;;;3.35;100.00;96799.50;4921857;29;20518;-86
2021/12/29 02:38:42;;;;;;;15.93;6.85;;;;;;;3.28;100.00;96809.50;4921835;29;20040;-88
2021/12/29 02:41:08;;;;;;;22.40;7.40;;;;;;;3.20;100.00;96779.88;4906311;29;20407;-86
2021/12/29 02:43:37;;;;;;;15.18;7.75;;;;;;;3.16;100.00;96782.75;4921769;29;20066;-87
2021/12/29 02:46:08;;;;;;;19.77;7.43;;;;;;;3.13;100.00;96773.19;4921302;29;20059;-87
2021/12/29 02:48:38;;;;;;;26.88;8.30;;;;;;;3.22;100.00;96782.47;4920788;29;20036;-87
2021/12/29 02:51:07;;;;;;;21.42;8.15;;;;;;;3.28;100.00;96784.84;4920964;29;20031;-87
2021/12/29 02:53:32;;;;;;;16.52;7.00;;;;;;;3.15;100.00;96744.91;4920222;29;20043;-86
2021/12/29 02:55:58;;;;;;;18.60;7.13;;;;;;;3.34;100.00;96765.19;4904281;29;20036;-86
2021/12/29 02:58:24;;;;;;;16.23;7.22;;;;;;;3.01;100.00;96746.47;4920628;29;20067;-87
2021/12/29 03:00:52;;;;;;;19.50;7.28;;;;;;;3.39;100.00;96779.06;4919156;29;20036;-87
2021/12/29 03:03:23;;;;;;;20.85;7.10;;;;;;;3.40;100.00;96764.91;4920669;29;20036;-87
2021/12/29 03:05:49;;;;;;;16.55;7.30;;;;;;;3.44;100.00;96775.28;4903879;29;20035;-87
2021/12/29 03:08:16;;;;;;;22.83;8.27;;;;;;;3.54;100.00;96784.50;4919896;29;20412;-87
2021/12/29 03:10:43;;;;;;;25.25;8.43;;;;;;;3.55;100.00;96775.63;4930939;29;20538;-87
2021/12/29 03:13:08;;;;;;;19.77;8.60;;;;;;;3.36;100.00;96777.41;4924736;29;20059;-87
2021/12/29 03:15:35;;;;;;;19.52;8.45;;;;;;;3.40;100.00;96776.34;4925115;29;20039;-87
2021/12/29 03:18:01;;;;;;;32.50;8.80;;;;;;;3.42;100.00;96785.06;4924776;29;20119;-87
2021/12/29 03:20:27;;;;;;;17.88;8.30;;;;;;;3.38;100.00;96788.78;4926178;29;20147;-87
2021/12/29 03:22:54;;;;;;;26.02;8.73;;;;;;;3.36;100.00;96780.06;4928221;29;20031;-87
2021/12/29 03:25:22;;;;;;;22.80;8.35;;;;;;;3.48;100.00;96792.69;4928443;29;20039;-87
2021/12/29 03:27:48;;;;;;;32.60;8.35;;;;;;;3.34;100.00;96791.63;4927390;29;20031;-87
2021/12/29 03:30:14;;;;;;;57.58;8.32;;;;;;;3.46;100.00;96797.22;4927841;29;20031;-89
2021/12/29 03:32:43;;;;;;;39.22;7.65;;;;;;;3.47;100.00;96801.59;4928389;29;20031;-88
2021/12/29 03:35:10;;;;;;;22.42;8.55;;;;;;;3.48;100.00;96799.75;4944951;29;20068;-88
2021/12/29 03:37:37;;;;;;;19.90;8.30;;;;;;;3.37;100.00;96797.63;4928391;29;20047;-88
2021/12/29 03:40:04;;;;;;;27.65;9.13;;;;;;;3.45;100.00;96795.47;4927136;29;20042;-87
2021/12/29 03:42:29;;;;;;;24.52;8.30;;;;;;;3.48;100.00;96790.06;4943853;29;20099;-88
2021/12/29 03:44:55;;;;;;;24.55;8.80;;;;;;;3.46;100.00;96781.34;4943577;29;20129;-87
2021/12/29 03:47:20;;;;;;;25.17;8.93;;;;;;;3.56;100.00;96782.66;4927627;29;20058;-87
2021/12/29 03:49:46;;;;;;;19.48;8.25;;;;;;;3.48;100.00;96776.84;4927460;29;20035;-88
2021/12/29 03:52:12;;;;;;;30.80;8.63;;;;;;;3.49;100.00;96772.41;4927820;29;20042;-88
2021/12/29 03:54:37;;;;;;;19.60;7.72;;;;;;;3.41;100.00;96769.28;4928408;29;20097;-88
2021/12/29 03:57:03;;;;;;;22.33;7.18;;;;;;;3.38;100.00;96762.38;4942772;29;20423;-87
2021/12/29 03:59:29;;;;;;;24.10;8.90;;;;;;;3.44;100.00;96772.66;4926649;29;20065;-87
2021/12/29 04:01:55;;;;;;;28.88;9.77;;;;;;;3.39;100.00;96777.25;4928654;29;20105;-87
2021/12/29 04:04:21;;;;;;;23.15;8.40;;;;;;;3.41;100.00;96778.06;4935051;29;20043;-85
2021/12/29 04:06:47;;;;;;;21.63;8.75;;;;;;;3.38;100.00;96775.56;4951874;29;20491;-86
2021/12/29 04:09:13;;;;;;;18.13;7.28;;;;;;;3.30;100.00;96759.19;4938146;29;20042;-85
2021/12/29 04:11:40;;;;;;;21.15;8.55;;;;;;;3.09;100.00;96744.31;4954007;29;20054;-88
2021/12/29 04:14:06;;;;;;;40.65;13.75;;;;;;;3.24;100.00;96765.63;4937829;29;20047;-87
2021/12/29 04:16:36;;;;;;;45.35;12.80;;;;;;;3.34;100.00;96766.06;4936878;29;20031;-88
2021/12/29 04:19:15;;;;;;;26.38;9.13;;;;;;;3.26;100.00;96749.72;4955034;29;20039;-86
2021/12/29 04:21:43;;;;;;;21.67;8.00;;;;;;;3.27;100.00;96754.91;4941605;29;20095;-88
2021/12/29 04:24:09;;;;;;;23.33;9.00;;;;;;;3.38;100.00;96770.28;4954698;29;20115;-87
2021/12/29 04:26:37;;;;;;;35.72;9.55;;;;;;;3.39;100.00;96757.91;4953486;29;20070;-86
2021/12/29 04:29:10;;;;;;;24.55;10.23;;;;;;;3.49;100.00;96780.34;4935010;29;20031;-86
2021/12/29 04:31:35;;;;;;;20.48;8.82;;;;;;;3.35;100.00;96770.44;4948325;29;20031;-85
2021/12/29 04:34:01;;;;;;;25.13;11.30;;;;;;;3.31;100.00;96770.63;4944539;29;20054;-87
2021/12/29 04:36:27;;;;;;;28.88;11.10;;;;;;;3.26;100.00;96765.56;4915828;29;20043;-87
2021/12/29 04:38:53;;;;;;;33.03;11.80;;;;;;;3.36;100.00;96769.47;4924728;29;20054;-87
2021/12/29 04:41:20;;;;;;;30.33;10.88;;;;;;;3.35;100.00;96773.06;4925229;29;20059;-86
2021/12/29 04:43:46;;;;;;;29.35;11.80;;;;;;;3.21;100.00;96796.59;4923044;29;20036;-86
2021/12/29 04:46:16;;;;;;;33.30;13.40;;;;;;;3.35;100.00;96796.84;4923760;29;20047;-86
2021/12/29 04:48:49;;;;;;;32.08;12.50;;;;;;;3.28;100.00;96791.00;4922757;29;20031;-87
2021/12/29 04:51:22;;;;;;;33.72;13.13;;;;;;;3.45;100.00;96811.34;4923533;29;20035;-87
2021/12/29 04:53:47;;;;;;;20.48;9.32;;;;;;;3.25;100.00;96790.28;4924571;29;20163;-87
2021/12/29 04:56:15;;;;;;;24.10;9.52;;;;;;;3.21;100.00;96786.03;4923099;29;20537;-86
2021/12/29 04:58:41;;;;;;;23.08;9.35;;;;;;;3.25;100.00;96788.50;4923359;29;20040;-86
2021/12/29 05:01:06;;;;;;;27.33;9.68;;;;;;;3.24;100.00;96788.53;4924874;29;20032;-86
2021/12/29 05:03:32;;;;;;;23.58;10.38;;;;;;;3.12;100.00;96786.47;4908335;29;20389;-86
2021/12/29 05:08:24;;;;;;;28.38;12.25;;;;;;;3.13;100.00;96798.75;4923657;29;20098;-86
2021/12/29 05:08:43;;;;;;;15.18;7.38;;;;;;;2.99;100.00;96785.28;4925523;29;20047;-86
2021/12/29 05:11:13;;;;;;;12.18;6.50;;;;;;;3.20;100.00;96810.72;4922499;29;20067;-86
2021/12/29 05:13:41;;;;;;;24.15;10.43;;;;;;;3.19;100.00;96816.97;4922571;29;20431;-86
2021/12/29 05:16:07;;;;;;;30.65;12.68;;;;;;;3.16;100.00;96815.31;4922270;29;20031;-86
2021/12/29 05:18:38;;;;;;;21.70;10.90;;;;;;;2.97;100.00;96793.28;4922876;29;20127;-87
2021/12/29 05:21:05;;;;;;;23.27;12.18;;;;;;;3.01;100.00;96799.28;4938071;29;20129;-88
2021/12/29 05:23:31;;;;;;;23.20;12.90;;;;;;;3.00;100.00;96809.00;4925483;29;20104;-87
2021/12/29 05:25:57;;;;;;;22.35;11.90;;;;;;;2.98;100.00;96788.88;4927787;29;20526;-87
2021/12/29 05:28:24;;;;;;;26.10;12.65;;;;;;;3.04;100.00;96800.03;4940809;29;20117;-88
2021/12/29 05:30:50;;;;;;;26.75;13.00;;;;;;;3.08;100.00;96796.28;4945663;29;20491;-88
2021/12/29 05:33:16;;;;;;;25.48;13.07;;;;;;;3.01;100.00;96794.00;4926121;29;20043;-87
2021/12/29 05:35:42;;;;;;;22.33;11.10;;;;;;;2.97;100.00;96788.00;4941829;29;20562;-86
2021/12/29 05:38:08;;;;;;;25.92;12.05;;;;;;;2.95;100.00;96799.56;4941852;29;20039;-86
2021/12/29 05:40:33;;;;;;;31.50;15.05;;;;;;;3.04;100.00;96813.22;4912876;29;20043;-86
2021/12/29 05:42:59;;;;;;;22.63;10.68;;;;;;;3.17;100.00;96821.44;4921468;29;20050;-86
2021/12/29 05:45:26;;;;;;;19.90;8.60;;;;;;;3.15;100.00;96818.03;4922016;29;20051;-86
2021/12/29 05:47:52;;;;;;;19.35;9.68;;;;;;;2.99;100.00;96811.69;4922896;29;20059;-85
2021/12/29 05:50:20;;;;;;;22.73;10.95;;;;;;;2.92;100.00;96815.53;4906697;29;20091;-85
2021/12/29 05:52:46;;;;;;;23.50;12.27;;;;;;;3.00;100.00;96827.47;4922546;29;20032;-86
2021/12/29 05:55:12;;;;;;;25.25;12.30;;;;;;;2.92;100.00;96804.97;4906867;29;20149;-86
2021/12/29 05:57:38;;;;;;;27.73;13.50;;;;;;;2.77;100.00;96810.94;4923767;29;20500;-85
2021/12/29 06:00:13;;;;;;;24.63;12.40;;;;;;;2.88;100.00;96843.00;4907939;29;20132;-86
2021/12/29 06:02:39;;;;;;;22.73;12.32;;;;;;;2.80;100.00;96816.91;4923225;29;20114;-87
2021/12/29 06:05:06;;;;;;;36.17;17.35;;;;;;;3.02;100.00;96851.16;4922960;29;20044;-88
2021/12/29 06:07:33;;;;;;;21.48;10.35;;;;;;;3.12;100.00;96839.28;4922749;29;20031;-86
2021/12/29 06:09:59;;;;;;;25.02;12.07;;;;;;;3.04;100.00;96826.44;4922361;29;20527;-86
2021/12/29 06:12:25;;;;;;;24.17;12.68;;;;;;;3.01;100.00;96828.34;4906972;29;20071;-87
2021/12/29 06:14:51;;;;;;;23.60;11.15;;;;;;;3.14;100.00;96834.78;4922521;29;20032;-86
2021/12/29 06:17:17;;;;;;;27.10;11.75;;;;;;;3.11;100.00;96837.56;4925347;29;20040;-88
2021/12/29 06:19:49;;;;;;;28.77;13.23;;;;;;;2.98;100.00;96816.13;4912299;29;20036;-91
2021/12/29 06:22:15;;;;;;;29.15;16.35;;;;;;;2.98;100.00;96824.06;4928787;29;20041;-89
2021/12/29 06:24:42;;;;;;;33.08;16.13;;;;;;;3.13;100.00;96817.25;4909604;29;20039;-86
2021/12/29 06:27:09;;;;;;;40.30;19.83;;;;;;;3.19;100.00;96830.19;4921772;29;20043;-85
2021/12/29 06:29:37;;;;;;;30.83;14.88;;;;;;;2.96;100.00;96807.41;4926215;29;20035;-86
2021/12/29 06:32:03;;;;;;;22.00;10.18;;;;;;;3.04;100.00;96818.50;4926444;29;20395;-86
2021/12/29 06:34:30;;;;;;;14.13;6.68;;;;;;;3.03;100.00;96839.69;4940351;29;20031;-85
2021/12/29 06:36:56;;;;;;;12.75;6.70;;;;;;;2.98;100.00;96836.41;4939354;29;20049;-86
2021/12/29 06:39:22;;;;;;;16.40;7.15;;;;;;;2.89;100.00;96821.78;4941681;29;20046;-86
2021/12/29 06:41:48;;;;;;;44.72;8.48;;;;;;;2.92;100.00;96820.81;4924785;29;20098;-87
2021/12/29 06:44:13;;;;;;;41.80;12.60;;;;;;;3.05;100.00;96833.41;4940813;29;20396;-87
2021/12/29 06:46:39;;;;;;;24.20;10.25;;;;;;;2.94;100.00;96818.97;4925700;29;20139;-87
2021/12/29 06:49:05;;;;;;;46.28;18.50;;;;;;;3.04;100.00;96812.38;4924332;29;20038;-87
2021/12/29 06:51:31;;;;;;;36.33;12.50;;;;;;;3.16;100.00;96825.03;4940403;29;20122;-86
2021/12/29 06:53:56;;;;;;;32.08;10.85;;;;;;;3.35;100.00;96839.16;4923138;29;20038;-86
2021/12/29 06:56:22;;;;;;;33.10;12.02;;;;;;;3.37;100.00;96832.00;4939963;29;20035;-86
2021/12/29 06:58:47;;;;;;;33.50;8.57;;;;;;;3.36;100.00;96822.34;4940161;29;20520;-86
2021/12/29 07:01:16;;;;;;;35.60;8.63;;;;;;;3.43;100.00;96830.84;4925115;29;20098;-86
2021/12/29 07:03:42;;;;;;;20.63;8.68;;;;;;;3.43;100.00;96820.28;4940452;29;20035;-86
2021/12/29 07:06:07;;;;;;;23.85;8.50;;;;;;;3.61;100.00;96844.09;4923704;29;20098;-87
2021/12/29 07:08:33;;;;;;;21.33;7.22;;;;;;;3.48;100.00;96826.19;4940051;29;20027;-87
2021/12/29 07:11:00;;;;;;;27.42;10.27;;;;;;;3.51;100.00;96824.28;4923927;29;20047;-87
2021/12/29 07:13:25;;;;;;;27.67;11.18;;;;;;;3.56;100.00;96829.38;4922839;29;20035;-87
2021/12/29 07:15:51;;;;;;;37.40;15.38;;;;;;;3.58;100.00;96825.72;4923381;29;20039;-87
2021/12/29 07:18:16;;;;;;;51.58;23.35;;;;;;;3.70;100.00;96835.72;4922933;29;20065;-86
2021/12/29 07:20:44;;;;;;;23.17;10.82;;;;;;;3.66;100.00;96844.72;4906221;29;20040;-87
2021/12/29 07:23:10;;;;;;;34.95;13.32;;;;;;;3.61;100.00;96844.09;4915061;29;20578;-87
2021/12/29 07:25:48;;;;;;;33.58;15.80;;;;;;;3.65;100.00;96845.69;4923597;29;20042;-87
2021/12/29 07:28:35;;;;;;;32.22;15.23;;;;;;;3.69;100.00;96856.97;4940241;29;20043;-88
2021/12/29 07:31:01;;;;;;;32.28;14.68;;;;;;;3.58;100.00;96860.09;4941589;29;20043;-87
2021/12/29 07:33:27;;;;;;;33.25;13.82;;;;;;;3.57;100.00;96852.25;4923845;29;20047;-87
2021/12/29 07:35:52;;;;;;;23.88;11.23;;;;;;;3.74;100.00;96876.97;4913515;29;20043;-87
2021/12/29 07:38:18;;;;;;;77.43;34.40;;;;;;;3.77;100.00;96866.25;4908349;29;20197;-87
2021/12/29 07:40:43;;;;;;;31.88;13.43;;;;;;;3.62;100.00;96866.09;4924465;29;20046;-87
2021/12/29 07:43:09;;;;;;;28.65;12.77;;;;;;;3.70;100.00;96872.75;4924178;29;20058;-86
2021/12/29 07:45:35;;;;;;;31.25;13.90;;;;;;;3.66;100.00;96857.13;4908759;29;20032;-87
2021/12/29 07:48:04;;;;;;;27.77;12.00;;;;;;;3.79;100.00;96885.56;4920368;29;20059;-87
2021/12/29 07:50:29;;;;;;;29.90;13.98;;;;;;;3.65;100.00;96861.53;4921389;29;20080;-86
2021/12/29 07:52:55;;;;;;;36.88;17.50;;;;;;;3.78;100.00;96886.47;4920099;29;20461;-88
2021/12/29 07:55:20;;;;;;;34.85;16.40;;;;;;;3.62;100.00;96860.81;4920742;29;20138;-86
2021/12/29 07:57:47;;;;;;;35.78;18.35;;;;;;;3.72;100.00;96883.28;4936246;29;20046;-89
2021/12/29 08:00:14;;;;;;;41.58;19.38;;;;;;;3.72;100.00;96870.06;4935737;29;20488;-86
2021/12/29 08:02:42;;;;;;;45.10;19.67;;;;;;;3.64;100.00;96877.47;4907073;29;20028;-87
2021/12/29 08:05:08;;;;;;;49.95;22.33;;;;;;;3.74;100.00;96874.34;4906261;29;20040;-87
2021/12/29 08:07:34;;;;;;;44.63;17.40;;;;;;;3.68;100.00;96876.41;4926019;29;20397;-85
2021/12/29 08:10:00;;;;;;;31.90;11.85;;;;;;;3.59;100.00;96872.41;4924217;29;20106;-88
2021/12/29 08:12:26;;;;;;;31.15;13.43;;;;;;;3.60;100.00;96884.66;4908845;29;20039;-86
2021/12/29 08:14:53;;;;;;;27.75;11.05;;;;;;;3.70;100.00;96879.81;4924192;29;20138;-87
2021/12/29 08:17:18;;;;;;;29.88;13.25;;;;;;;3.80;100.00;96889.91;4908188;29;20047;-88
2021/12/29 08:19:45;;;;;;;30.33;12.88;;;;;;;3.78;100.00;96881.19;4916664;29;20519;-86
2021/12/29 08:22:11;;;;;;;35.22;16.88;;;;;;;3.71;100.00;96877.13;4930382;29;20039;-79
2021/12/29 08:24:37;;;;;;;36.45;17.42;;;;;;;3.60;100.00;96867.97;4918278;29;20051;-90
2021/12/29 08:27:02;;;;;;;38.70;18.02;;;;;;;3.70;100.00;96867.47;4935717;29;20115;-79
2021/12/29 08:29:28;;;;;;;36.78;18.02;;;;;;;3.57;100.00;96853.06;4931794;29;20039;-77
2021/12/29 08:31:56;;;;;;;41.80;22.23;;;;;;;3.74;100.00;96873.47;4905303;29;20456;-78
2021/12/29 08:34:22;;;;;;;42.42;20.63;;;;;;;3.61;100.00;96872.31;4922202;29;20098;-78
2021/12/29 08:36:49;;;;;;;46.08;23.15;;;;;;;3.34;100.00;96860.34;4918473;29;20442;-78
2021/12/29 08:39:14;;;;;;;44.28;20.73;;;;;;;3.45;100.00;96866.00;4915667;29;20035;-78
2021/12/29 08:41:40;;;;;;;51.42;22.13;;;;;;;3.41;100.00;96857.38;4909028;29;20570;-79
2021/12/29 08:44:06;;;;;;;29.73;15.63;;;;;;;3.24;100.00;96849.31;4931987;29;20496;-78
2021/12/29 08:46:31;;;;;;;36.03;19.35;;;;;;;3.40;100.00;96858.28;4903482;29;20083;-77
2021/12/29 08:48:57;;;;;;;34.42;16.67;;;;;;;3.46;100.00;96858.00;4914627;29;20448;-77
2021/12/29 08:51:23;;;;;;;29.88;15.05;;;;;;;3.52;100.00;96857.72;4933133;29;20043;-79
2021/12/29 08:53:48;;;;;;;22.50;11.38;;;;;;;3.59;100.00;96856.53;4900463;29;20046;-79
2021/12/29 08:56:16;;;;;;;20.50;10.55;;;;;;;3.68;100.00;96850.81;4922665;29;20093;-79
2021/12/29 08:58:43;;;;;;;15.02;7.88;;;;;;;3.52;100.00;96833.06;4931388;29;20152;-90
2021/12/29 09:01:09;;;;;;;15.18;7.72;;;;;;;3.56;100.00;96850.53;4933581;29;20040;-88
2021/12/29 09:03:35;;;;;;;18.27;8.60;;;;;;;3.53;100.00;96813.66;4940347;29;20042;-90
2021/12/29 09:06:02;;;;;;;19.48;10.10;;;;;;;3.62;100.00;96824.66;4928559;29;20129;-87
2021/12/29 09:08:28;;;;;;;38.47;18.25;;;;;;;3.53;100.00;96819.81;4917498;29;20046;-90
2021/12/29 09:10:54;;;;;;;37.97;19.42;;;;;;;3.17;100.00;96816.16;4918180;29;20428;-91
2021/12/29 09:13:20;;;;;;;37.08;18.00;;;;;;;3.17;100.00;96824.09;4910945;29;20178;-88
2021/12/29 09:15:47;;;;;;;37.45;20.90;;;;;;;3.20;100.00;96818.66;4926323;29;20051;-88
2021/12/29 09:18:12;;;;;;;45.13;23.63;;;;;;;3.15;100.00;96815.38;4937181;29;20043;-91
2021/12/29 09:20:44;;;;;;;47.08;20.90;;;;;;;3.20;100.00;96813.38;4923080;29;20040;-89
2021/12/29 09:23:14;;;;;;;41.33;17.73;;;;;;;3.17;100.00;96818.78;4912744;29;20059;-90
2021/12/29 09:25:40;;;;;;;32.28;15.27;;;;;;;3.13;100.00;96798.75;4931202;29;20044;-92
2021/12/29 09:28:08;;;;;;;31.58;14.73;;;;;;;3.20;100.00;96781.66;4935688;29;20496;-91
2021/12/29 09:30:35;;;;;;;27.42;13.43;;;;;;;3.41;100.00;96803.66;4927033;29;20111;-91
2021/12/29 09:33:01;;;;;;;28.55;14.02;;;;;;;3.40;100.00;96786.91;4919231;29;20047;-92
2021/12/29 09:35:28;;;;;;;26.90;14.10;;;;;;;3.51;100.00;96784.63;4940674;28;20447;-75
2021/12/29 09:37:54;;;;;;;26.15;13.18;;;;;;;3.70;100.00;96809.28;4927675;29;20050;-77
2021/12/29 09:40:22;;;;;;;28.10;13.80;;;;;;;3.68;100.00;96792.66;4926623;29;20047;-86
2021/12/29 09:42:51;;;;;;;25.05;12.00;;;;;;;3.81;100.00;96793.75;4913860;29;20197;-88
2021/12/29 09:45:17;;;;;;;22.00;12.18;;;;;;;3.90;100.00;96792.50;4915907;29;20484;-93
2021/12/29 09:47:43;;;;;;;46.42;19.83;;;;;;;3.96;100.00;96799.28;4908407;29;20398;-86
2021/12/29 09:50:11;;;;;;;38.05;20.40;;;;;;;4.00;100.00;96795.56;4931076;29;20046;-86
2021/12/29 09:52:38;;;;;;;33.55;17.35;;;;;;;3.90;100.00;96784.56;4926591;29;20043;-89
2021/12/29 09:55:08;;;;;;;28.42;15.65;;;;;;;3.89;100.00;96800.47;4914746;29;20045;-78
2021/12/29 09:57:35;;;;;;;31.92;16.95;;;;;;;3.91;100.00;96794.19;4924912;29;20081;-77
2021/12/29 10:00:04;;;;;;;36.65;15.98;;;;;;;3.99;100.00;96791.19;4933793;29;20042;-77
2021/12/29 10:02:30;;;;;;;46.05;15.48;;;;;;;4.10;100.00;96795.03;4933953;29;20046;-78
2021/12/29 10:04:57;;;;;;;23.25;12.57;;;;;;;4.12;100.00;96781.72;4933178;29;20032;-76
2021/12/29 10:07:23;;;;;;;27.50;13.90;;;;;;;4.23;100.00;96776.75;4914707;29;20150;-77
2021/12/29 10:09:49;;;;;;;32.38;15.73;;;;;;;4.37;100.00;96771.63;4923144;28;20031;-76
2021/12/29 10:12:20;;;;;;;26.15;15.23;;;;;;;4.46;100.00;96773.81;4928327;29;20087;-82
2021/12/29 10:14:54;;;;;;;25.70;13.60;;;;;;;4.58;100.00;96764.41;4927298;29;20047;-82
2021/12/29 10:17:26;;;;;;;26.27;14.05;;;;;;;4.76;100.00;96766.97;4922304;29;20070;-77
2021/12/29 10:20:02;;;;;;;26.40;14.30;;;;;;;4.89;100.00;96765.38;4924005;29;20206;-76
2021/12/29 10:22:28;;;;;;;26.23;13.63;;;;;;;4.64;100.00;96754.38;4918807;29;20078;-76
2021/12/29 10:25:10;;;;;;;32.92;17.33;;;;;;;4.15;100.00;96755.13;4898319;29;20080;-76
2021/12/29 10:27:37;;;;;;;29.02;14.13;;;;;;;3.92;100.00;96752.72;4931421;29;20519;-77
2021/12/29 10:30:16;;;;;;;30.80;15.90;;;;;;;3.69;100.00;96754.69;4914135;29;20134;-77
2021/12/29 10:32:42;;;;;;;30.67;17.27;;;;;;;3.81;100.00;96756.72;4925905;29;20111;-77
2021/12/29 10:35:08;;;;;;;27.15;14.13;;;;;;;3.84;100.00;96751.31;4914337;29;20135;-77
2021/12/29 10:37:33;;;;;;;27.55;15.52;;;;;;;3.95;100.00;96756.09;4898320;29;20087;-76
2021/12/29 10:39:59;;;;;;;31.63;16.20;;;;;;;4.11;100.00;96754.41;4915135;29;20050;-76
2021/12/29 10:42:26;;;;;;;22.05;12.73;;;;;;;4.16;100.00;96741.78;4919571;29;20043;-76
2021/12/29 10:45:00;;;;;;;18.08;11.20;;;;;;;4.30;100.00;96741.13;4917037;29;20039;-76
2021/12/29 10:47:31;;;;;;;20.23;11.52;;;;;;;4.52;100.00;96748.84;4925411;29;20038;-77
2021/12/29 10:50:03;;;;;;;21.95;11.50;;;;;;;4.53;100.00;96740.81;4924696;29;20495;-76
2021/12/29 10:52:36;;;;;;;17.58;9.13;;;;;;;4.42;100.00;96742.28;4928500;29;20123;-75
2021/12/29 10:55:06;;;;;;;21.67;12.02;;;;;;;4.05;100.00;96743.28;4922014;29;20051;-77
2021/12/29 10:57:32;;;;;;;21.15;12.52;;;;;;;4.21;100.00;96744.22;4909162;29;20066;-89
2021/12/29 11:00:48;;;;;;;26.48;14.18;;;;;;;4.33;100.00;96744.47;4929760;29;20414;-87
2021/12/29 11:03:32;;;;;;;24.38;14.20;;;;;;;4.17;100.00;96700.31;4929737;29;20452;-88
2021/12/29 11:09:24;;;;;;;21.33;12.55;;;;;;;4.23;100.00;96747.66;4939028;29;20031;-87
2021/12/29 11:11:49;;;;;;;28.02;14.65;;;;;;;3.99;100.00;96712.69;4908299;28;20051;-87
2021/12/29 11:14:37;;;;;;;34.65;18.90;;;;;;;4.40;100.00;96739.69;4932101;29;20106;-88
2021/12/29 11:17:10;;;;;;;27.73;13.77;;;;;;;4.56;100.00;96745.06;4911609;29;20047;-87
2021/12/29 11:19:37;;;;;;;22.17;12.52;;;;;;;4.56;100.00;96737.13;4921702;29;20050;-88
2021/12/29 11:22:13;;;;;;;28.10;15.57;;;;;;;4.62;100.00;96735.03;4923070;29;20407;-87
2021/12/29 11:24:40;;;;;;;39.63;20.20;;;;;;;4.60;100.00;96746.66;4902318;29;20036;-88
2021/12/29 11:27:14;;;;;;;32.35;16.80;;;;;;;4.33;100.00;96714.50;4922497;29;20047;-87